Time;durP1;ratioP1;P1;durP2;ratioP2;P2;SDS_P1;SDS_P2;PMS_P1;PMS_P2;Temp;Humidity;BMP_temperature;BMP_pressure;BME280_temperature;BME280_humidity;BME280_pressure;Samples;Min_cycle;Max_cycle;Signal;HPM_P1;HPM_P2
2022/08/16 00:04:56;;;;;;;24.27;16.98;;;;;;;18.89;91.80;100390.63;10404794;28;20041;-88
2022/08/16 00:10:03;;;;;;;24.17;16.65;;;;;;;18.95;91.73;100388.75;10405369;28;20056;-88
2022/08/16 00:15:17;;;;;;;22.48;17.55;;;;;;;18.92;92.03;100391.47;10400871;28;20061;-89
2022/08/16 00:20:20;;;;;;;21.73;16.88;;;;;;;18.97;92.05;100386.91;10414108;28;20041;-89
2022/08/16 00:25:26;;;;;;;21.67;16.58;;;;;;;19.02;92.29;100379.72;10409786;28;20080;-87
2022/08/16 00:30:47;;;;;;;22.05;17.10;;;;;;;18.96;92.04;100380.75;10415694;28;20124;-89
2022/08/16 00:35:51;;;;;;;23.83;17.73;;;;;;;18.92;91.87;100383.53;10417567;28;20046;-89
2022/08/16 00:40:56;;;;;;;25.05;18.77;;;;;;;18.84;92.23;100388.94;10410505;28;20765;-89
2022/08/16 00:46:21;;;;;;;28.35;19.83;;;;;;;18.80;92.00;100396.13;10412273;28;20068;-88
2022/08/16 00:51:35;;;;;;;28.38;19.00;;;;;;;18.81;92.50;100402.28;10403258;28;20047;-89
2022/08/16 00:56:42;;;;;;;26.10;19.20;;;;;;;18.81;92.16;100387.25;10405217;28;20064;-87
2022/08/16 01:02:00;;;;;;;26.13;19.05;;;;;;;18.75;91.95;100384.75;10399397;28;20068;-87
2022/08/16 01:07:21;;;;;;;23.63;19.00;;;;;;;18.68;91.81;100385.78;10405996;28;20049;-89
2022/08/16 01:12:23;;;;;;;25.15;17.42;;;;;;;18.63;91.72;100391.19;10410177;28;20550;-90
2022/08/16 01:17:29;;;;;;;23.98;17.70;;;;;;;18.61;91.81;100400.09;10403336;28;20140;-89
2022/08/16 01:22:51;;;;;;;28.77;18.30;;;;;;;18.59;91.76;100409.88;10421453;28;20107;-87
2022/08/16 01:27:59;;;;;;;22.57;16.70;;;;;;;18.58;91.57;100408.13;10425205;28;20041;-88
2022/08/16 01:33:05;;;;;;;23.00;17.50;;;;;;;18.55;91.20;100415.25;10412110;28;20706;-87
2022/08/16 01:38:34;;;;;;;21.33;16.80;;;;;;;18.57;91.51;100403.72;10385805;28;20076;-88
2022/08/16 01:43:39;;;;;;;24.17;18.08;;;;;;;18.53;91.29;100414.38;10378628;28;20042;-88
2022/08/16 01:48:43;;;;;;;24.27;17.75;;;;;;;18.50;91.07;100411.81;10391068;28;20046;-89
2022/08/16 01:53:46;;;;;;;22.58;17.23;;;;;;;18.47;90.80;100429.56;10375727;28;20042;-88
2022/08/16 01:59:11;;;;;;;24.08;17.90;;;;;;;18.50;90.93;100419.75;10381610;28;20045;-88
2022/08/16 02:04:19;;;;;;;22.02;17.65;;;;;;;18.45;91.18;100416.34;10360493;28;20603;-88
2022/08/16 02:09:41;;;;;;;21.13;16.48;;;;;;;18.45;90.96;100421.66;10401264;28;20037;-87
2022/08/16 02:14:58;;;;;;;21.45;17.38;;;;;;;18.46;90.89;100423.38;10409679;28;20512;-87
2022/08/16 02:20:03;;;;;;;23.52;18.10;;;;;;;18.47;91.21;100419.81;10400167;28;20128;-88
2022/08/16 02:25:15;;;;;;;22.02;16.92;;;;;;;18.45;91.12;100424.28;10384432;28;20053;-89
2022/08/16 02:30:20;;;;;;;28.45;19.27;;;;;;;18.45;91.02;100423.41;10385883;28;20044;-89
2022/08/16 02:35:42;;;;;;;23.23;18.33;;;;;;;18.52;90.91;100415.28;10358143;28;20041;-88
2022/08/16 02:40:56;;;;;;;22.17;17.10;;;;;;;18.54;90.73;100410.84;10381230;28;20441;-90
2022/08/16 02:46:01;;;;;;;24.40;18.48;;;;;;;18.51;90.80;100408.25;10393793;28;20049;-89
2022/08/16 02:51:09;;;;;;;25.63;18.65;;;;;;;18.53;90.50;100402.91;10416988;28;20072;-88
2022/08/16 02:56:17;;;;;;;23.58;16.98;;;;;;;18.50;90.39;100398.53;10422188;28;20120;-87
2022/08/16 03:01:24;;;;;;;26.33;18.00;;;;;;;18.44;90.56;100409.28;10409838;28;20045;-88
2022/08/16 03:06:43;;;;;;;24.08;17.27;;;;;;;18.34;90.66;100407.72;10402820;28;20881;-87
2022/08/16 03:11:53;;;;;;;23.77;17.33;;;;;;;18.30;91.06;100411.34;10396845;28;20571;-88
2022/08/16 03:16:55;;;;;;;22.40;16.60;;;;;;;18.35;91.21;100410.34;10407520;28;20053;-88
2022/08/16 03:22:01;;;;;;;22.58;15.75;;;;;;;18.37;91.17;100397.06;10405498;28;20064;-89
2022/08/16 03:27:03;;;;;;;22.58;17.05;;;;;;;18.36;91.09;100398.00;10397019;28;20073;-88
2022/08/16 03:32:08;;;;;;;22.60;16.98;;;;;;;18.35;91.05;100393.59;10394244;28;20044;-89
2022/08/16 03:37:14;;;;;;;24.42;17.70;;;;;;;18.28;91.42;100407.88;10407985;28;20049;-89
2022/08/16 03:42:17;;;;;;;24.95;18.67;;;;;;;18.22;91.07;100410.66;10411201;28;20037;-87
2022/08/16 03:47:21;;;;;;;22.20;17.35;;;;;;;18.23;91.32;100407.09;10410692;28;20045;-90
2022/08/16 03:52:25;;;;;;;22.92;17.23;;;;;;;18.23;90.90;100404.44;10416664;28;20041;-88
2022/08/16 03:57:34;;;;;;;24.20;17.63;;;;;;;18.13;91.02;100399.31;10421271;28;20107;-90
2022/08/16 04:02:43;;;;;;;22.33;16.60;;;;;;;18.16;91.40;100404.53;10390741;28;20133;-90
2022/08/16 04:07:50;;;;;;;25.15;15.95;;;;;;;18.10;91.13;100398.50;10376810;28;20092;-89
2022/08/16 04:12:52;;;;;;;21.27;15.40;;;;;;;18.14;91.60;100406.38;10372930;28;20038;-90
2022/08/16 04:18:05;;;;;;;22.02;16.08;;;;;;;18.12;91.11;100412.59;10398318;28;20798;-89
2022/08/16 04:23:08;;;;;;;22.42;17.52;;;;;;;18.09;91.50;100416.19;10388589;28;20497;-90
2022/08/16 04:28:13;;;;;;;23.00;16.75;;;;;;;18.09;91.70;100418.84;10386969;28;20041;-89
2022/08/16 04:33:35;;;;;;;26.25;17.88;;;;;;;18.12;92.11;100421.44;10397042;28;20144;-89
2022/08/16 04:38:38;;;;;;;23.40;17.98;;;;;;;18.16;92.13;100425.75;10363688;28;20042;-90
2022/08/16 04:43:40;;;;;;;23.98;18.27;;;;;;;18.23;92.10;100434.47;10391502;28;20077;-88
2022/08/16 04:48:46;;;;;;;24.35;19.02;;;;;;;18.23;91.95;100426.50;10390614;28;20046;-90
2022/08/16 04:53:51;;;;;;;30.65;21.20;;;;;;;18.28;92.50;100435.22;10382576;28;20551;-90
2022/08/16 04:58:57;;;;;;;29.55;20.67;;;;;;;18.36;92.49;100432.44;10371517;28;20045;-89
2022/08/16 05:04:00;;;;;;;32.53;22.30;;;;;;;18.46;92.82;100439.28;10399209;28;20529;-89
2022/08/16 05:09:15;;;;;;;32.17;22.27;;;;;;;18.55;92.98;100444.41;10384053;28;20049;-90
2022/08/16 05:14:19;;;;;;;29.42;21.92;;;;;;;18.62;93.04;100452.22;10381288;28;20509;-87
2022/08/16 05:19:41;;;;;;;32.00;21.48;;;;;;;18.70;93.04;100451.13;10408876;28;20056;-87
2022/08/16 05:24:59;;;;;;;32.80;21.67;;;;;;;18.75;93.20;100460.78;10409286;28;20240;-89
2022/08/16 05:30:04;;;;;;;31.20;22.23;;;;;;;18.80;93.18;100462.41;10398866;28;20587;-87
2022/08/16 05:35:29;;;;;;;29.17;22.80;;;;;;;18.95;93.18;100447.13;10411771;28;20049;-87
2022/08/16 05:40:51;;;;;;;33.67;22.58;;;;;;;19.11;92.75;100451.16;10412898;28;20049;-88
2022/08/16 05:46:10;;;;;;;31.65;23.42;;;;;;;19.32;92.81;100447.13;10420291;28;20045;-86
2022/08/16 05:51:49;;;;;;;31.35;22.75;;;;;;;19.58;92.44;100459.72;10409817;28;20052;-88
2022/08/16 05:57:01;;;;;;;31.20;21.60;;;;;;;19.80;92.05;100458.31;10416714;28;20147;-89
2022/08/16 06:02:04;;;;;;;30.65;20.40;;;;;;;19.98;91.69;100462.28;10416133;28;20071;-88
2022/08/16 06:07:11;;;;;;;36.53;22.67;;;;;;;20.07;90.85;100467.34;10380223;28;20054;-88
2022/08/16 06:12:39;;;;;;;30.08;21.70;;;;;;;20.19;90.60;100471.44;10391736;28;20041;-87
2022/08/16 06:17:43;;;;;;;29.58;21.83;;;;;;;20.29;90.04;100473.78;10404833;28;20044;-87
2022/08/16 06:23:01;;;;;;;28.75;21.20;;;;;;;20.42;89.60;100484.09;10415667;28;20041;-87
2022/08/16 06:28:37;;;;;;;31.58;21.13;;;;;;;20.54;89.10;100482.88;10375874;28;20858;-88
2022/08/16 06:33:48;;;;;;;34.55;20.50;;;;;;;20.63;88.73;100483.47;10343270;28;20042;-88
2022/08/16 06:38:55;;;;;;;31.05;21.23;;;;;;;20.71;88.63;100480.63;10374526;28;20301;-88
2022/08/16 06:44:17;;;;;;;30.13;21.08;;;;;;;20.79;88.22;100481.28;10389605;28;20048;-87
2022/08/16 06:49:26;;;;;;;28.88;20.38;;;;;;;20.81;88.04;100492.72;10381746;28;20048;-87
2022/08/16 06:54:39;;;;;;;28.85;20.80;;;;;;;20.87;87.85;100494.34;10394866;28;20091;-88
2022/08/16 06:59:51;;;;;;;33.10;20.83;;;;;;;20.96;88.00;100504.69;10382859;28;20049;-88
2022/08/16 07:05:09;;;;;;;30.88;20.67;;;;;;;21.08;87.62;100510.56;10366089;28;20124;-87
2022/08/16 07:10:20;;;;;;;31.45;20.63;;;;;;;21.15;87.48;100513.00;10399797;28;20103;-87
2022/08/16 07:15:27;;;;;;;26.85;19.90;;;;;;;21.15;87.29;100522.75;10421555;28;20433;-87
2022/08/16 07:20:34;;;;;;;26.70;19.40;;;;;;;21.22;86.85;100532.31;10403202;28;20052;-87
2022/08/16 07:25:50;;;;;;;30.15;20.23;;;;;;;21.26;86.29;100541.06;10406379;28;20045;-87
2022/08/16 07:30:58;;;;;;;29.02;19.48;;;;;;;21.23;86.47;100539.38;10401281;28;20046;-88
2022/08/16 07:36:08;;;;;;;27.35;20.10;;;;;;;21.16;86.14;100540.47;10402021;28;20057;-87
2022/08/16 07:41:15;;;;;;;27.75;19.92;;;;;;;21.16;85.93;100543.13;10369993;28;20068;-87
2022/08/16 07:46:27;;;;;;;25.40;18.75;;;;;;;21.19;85.72;100549.22;10415476;28;20080;-87
2022/08/16 07:51:50;;;;;;;27.92;18.85;;;;;;;21.31;85.31;100549.78;10396415;28;20390;-88
2022/08/16 07:57:03;;;;;;;29.65;18.65;;;;;;;21.42;84.89;100557.44;10401150;28;20132;-88
2022/08/16 08:02:18;;;;;;;24.05;17.30;;;;;;;21.49;84.35;100564.31;10407188;28;20041;-87
2022/08/16 08:07:30;;;;;;;29.90;16.85;;;;;;;21.75;83.67;100559.97;10404186;28;20071;-87
2022/08/16 08:19:13;;;;;;;;;;;;;;;22.12;81.15;100559.59;10435394;28;20567;-89
2022/08/16 08:24:37;;;;;;;24.88;15.30;;;;;;;22.22;80.27;100568.16;10450264;28;20467;-89
2022/08/16 08:29:51;;;;;;;22.23;14.40;;;;;;;22.31;79.10;100559.88;10485128;28;20127;-88
2022/08/16 08:35:30;;;;;;;23.35;14.27;;;;;;;22.50;78.37;100561.84;10483331;28;20048;-87
2022/08/16 08:42:33;;;;;;;;;;;;;;;;;;;;;
2022/08/16 08:48:09;;;;;;;20.65;12.75;;;;;;;23.07;76.03;100560.59;10300597;28;20481;-89
2022/08/16 08:53:32;;;;;;;20.67;12.90;;;;;;;23.25;75.08;100564.38;10313744;28;20557;-87
2022/08/16 08:58:39;;;;;;;18.85;12.07;;;;;;;23.54;74.77;100572.19;10313621;28;20149;-92
2022/08/16 09:10:47;;;;;;;15.15;10.18;;;;;;;24.66;70.30;100582.66;10310069;28;20468;-89
2022/08/16 09:16:14;;;;;;;14.90;10.45;;;;;;;24.68;69.46;100592.38;10313641;28;20068;-88
2022/08/16 09:21:58;;;;;;;21.52;10.77;;;;;;;24.84;68.09;100591.66;10332778;28;20218;-88
2022/08/16 09:27:33;;;;;;;17.58;11.45;;;;;;;25.63;67.71;100593.38;10386177;22;20054;-89
2022/08/16 09:33:22;;;;;;;18.55;10.13;;;;;;;26.61;66.33;100588.38;10316953;28;20441;-87
2022/08/16 09:38:25;;;;;;;13.75;9.25;;;;;;;27.71;63.72;100600.34;10318726;28;20043;-84
2022/08/16 09:43:34;;;;;;;12.90;7.35;;;;;;;27.46;61.17;100607.16;10309948;28;20309;-85
2022/08/16 09:48:57;;;;;;;14.27;8.15;;;;;;;27.62;59.90;100608.00;10295757;28;20038;-86
2022/08/16 09:54:05;;;;;;;12.38;6.60;;;;;;;28.23;59.35;100612.63;10314307;28;20077;-86
2022/08/16 09:59:12;;;;;;;11.88;5.72;;;;;;;28.50;57.21;100612.75;10317434;28;20071;-87
2022/08/16 10:04:16;;;;;;;10.68;6.00;;;;;;;28.90;54.91;100607.66;10316280;28;20038;-87
2022/08/16 10:09:33;;;;;;;9.05;4.20;;;;;;;28.67;53.18;100618.00;10277694;28;20518;-88
2022/08/16 10:14:57;;;;;;;8.27;4.35;;;;;;;28.79;52.87;100620.91;10273710;28;20173;-90
2022/08/16 10:20:00;;;;;;;10.48;4.68;;;;;;;29.14;52.52;100623.22;10300557;28;20070;-88
2022/08/16 10:25:06;;;;;;;8.70;5.40;;;;;;;29.22;51.65;100621.78;10307308;28;20065;-86
2022/08/16 10:30:09;;;;;;;13.55;6.25;;;;;;;29.29;51.52;100624.97;10284153;28;20057;-86
2022/08/16 10:35:29;;;;;;;13.43;6.60;;;;;;;29.41;51.86;100623.28;10299888;28;20612;-86
2022/08/16 10:40:34;;;;;;;13.48;7.20;;;;;;;29.21;51.92;100629.97;10288457;28;20124;-88
2022/08/16 10:45:40;;;;;;;17.83;6.88;;;;;;;29.18;51.82;100630.16;10262376;28;20084;-87
2022/08/16 10:50:42;;;;;;;12.77;6.70;;;;;;;29.24;51.36;100636.03;10298207;28;20117;-87
2022/08/16 10:55:46;;;;;;;11.30;6.22;;;;;;;29.26;51.64;100625.19;10298197;28;20069;-88
2022/08/16 11:00:58;;;;;;;10.23;6.28;;;;;;;29.67;51.08;100626.16;10312656;28;20042;-88
2022/08/16 11:06:06;;;;;;;10.35;5.28;;;;;;;29.84;50.55;100633.16;10294788;28;20046;-87
2022/08/16 11:11:21;;;;;;;10.27;5.30;;;;;;;29.87;50.29;100624.84;10301402;28;20316;-86
2022/08/16 11:16:27;;;;;;;10.13;5.10;;;;;;;30.02;49.40;100631.06;10280181;28;20049;-86
2022/08/16 11:21:50;;;;;;;8.43;4.90;;;;;;;30.29;49.03;100631.00;10313144;28;20078;-88
2022/08/16 11:27:20;;;;;;;10.65;4.57;;;;;;;29.69;48.96;100629.59;10330014;28;20124;-87
2022/08/16 11:32:43;;;;;;;11.68;4.90;;;;;;;29.73;48.18;100637.38;10354221;28;20082;-87
2022/08/16 11:37:48;;;;;;;10.20;4.85;;;;;;;29.39;48.64;100639.56;10334393;28;20042;-88
2022/08/16 11:43:12;;;;;;;9.98;3.78;;;;;;;28.47;48.41;100642.56;10350758;28;20069;-88
2022/08/16 11:48:18;;;;;;;7.40;3.60;;;;;;;28.34;49.62;100640.59;10353558;28;20087;-86
2022/08/16 11:53:23;;;;;;;6.93;3.47;;;;;;;29.17;48.63;100644.56;10354108;28;20558;-86
2022/08/16 11:58:27;;;;;;;6.22;3.35;;;;;;;28.94;47.75;100659.50;10353508;28;20504;-88
2022/08/16 12:03:33;;;;;;;7.45;3.88;;;;;;;28.28;48.97;100648.19;10355709;28;20038;-87
2022/08/16 12:08:36;;;;;;;9.67;3.80;;;;;;;28.20;49.40;100643.25;10361260;28;20034;-88
2022/08/16 12:13:39;;;;;;;9.88;3.65;;;;;;;28.20;49.56;100654.88;10360524;28;20097;-87
2022/08/16 12:18:41;;;;;;;10.02;3.70;;;;;;;28.29;49.32;100658.00;10360468;28;20505;-87
2022/08/16 12:23:42;;;;;;;10.27;4.03;;;;;;;29.03;49.36;100643.63;10343189;28;20084;-87
2022/08/16 12:28:45;;;;;;;10.07;3.58;;;;;;;29.34;47.90;100647.09;10343490;28;20042;-90
2022/08/16 12:33:55;;;;;;;9.27;4.00;;;;;;;29.81;47.27;100647.69;10340988;28;20596;-88
2022/08/16 12:38:58;;;;;;;7.57;3.60;;;;;;;29.67;46.23;100645.03;10360056;28;20137;-87
2022/08/16 12:44:02;;;;;;;6.35;3.25;;;;;;;29.36;47.05;100649.72;10357889;28;20413;-87
2022/08/16 12:49:05;;;;;;;9.88;3.83;;;;;;;30.12;46.09;100646.53;10357597;28;20038;-88
2022/08/16 12:54:08;;;;;;;9.85;3.90;;;;;;;29.89;46.00;100652.59;10334999;28;20198;-91
2022/08/16 12:59:15;;;;;;;8.50;3.60;;;;;;;29.99;45.25;100653.72;10337478;28;20050;-89
2022/08/16 13:04:21;;;;;;;7.95;3.40;;;;;;;30.53;45.07;100657.34;10349552;28;20124;-90
2022/08/16 13:09:26;;;;;;;10.25;3.30;;;;;;;30.95;44.04;100658.00;10359444;28;20456;-91
2022/08/16 13:14:39;;;;;;;10.80;4.07;;;;;;;31.02;43.24;100659.34;10340755;28;20517;-88
2022/08/16 13:19:41;;;;;;;6.90;3.05;;;;;;;31.07;42.55;100657.16;10358441;28;20066;-90
2022/08/16 13:25:06;;;;;;;5.25;2.92;;;;;;;30.75;42.10;100654.88;10356558;28;20038;-89
2022/08/16 13:30:10;;;;;;;9.70;3.25;;;;;;;30.26;42.06;100653.69;10350248;28;20524;-89
2022/08/16 13:35:33;;;;;;;6.80;3.03;;;;;;;29.57;43.25;100663.63;10339585;28;20185;-89
2022/08/16 13:40:35;;;;;;;8.93;3.70;;;;;;;29.17;44.09;100671.53;10344941;28;20048;-90
2022/08/16 13:45:38;;;;;;;9.30;4.00;;;;;;;28.81;44.60;100667.47;10340401;28;20047;-90
2022/08/16 13:50:56;;;;;;;7.20;3.90;;;;;;;28.66;45.19;100670.16;10353454;28;20046;-90
2022/08/16 13:56:05;;;;;;;5.18;3.10;;;;;;;28.35;45.62;100663.03;10355736;28;20037;-90
2022/08/16 14:01:17;;;;;;;6.95;4.00;;;;;;;28.20;46.38;100665.66;10357815;28;20060;-92
2022/08/16 14:06:18;;;;;;;8.10;3.92;;;;;;;28.23;46.52;100658.38;10358764;28;20040;-85
2022/08/16 14:11:20;;;;;;;8.85;3.90;;;;;;;28.57;46.50;100657.22;10355587;28;20481;-88
2022/08/16 14:16:22;;;;;;;6.00;3.45;;;;;;;29.03;46.86;100662.47;10322483;28;20084;-90
2022/08/16 14:21:30;;;;;;;9.23;3.85;;;;;;;29.64;45.75;100670.38;10353889;28;20076;-88
2022/08/16 14:26:40;;;;;;;5.95;3.50;;;;;;;29.84;44.71;100662.84;10352666;28;20548;-91
2022/08/16 14:31:46;;;;;;;47.80;33.20;;;;;;;30.20;43.82;100664.91;10338103;28;20049;-89
2022/08/16 14:36:54;;;;;;;6.30;3.33;;;;;;;30.48;42.71;100660.38;10349896;28;20413;-88
2022/08/16 14:42:11;;;;;;;6.55;3.30;;;;;;;29.96;42.48;100660.16;10356402;28;20041;-88
2022/08/16 14:47:15;;;;;;;11.55;3.70;;;;;;;29.75;43.88;100648.06;10350992;28;20037;-88
2022/08/16 14:52:40;;;;;;;6.45;3.50;;;;;;;30.23;43.09;100656.59;10335669;28;20030;-89
2022/08/16 14:58:02;;;;;;;10.48;3.90;;;;;;;30.70;42.56;100648.06;10356649;28;20550;-90
2022/08/16 15:03:07;;;;;;;9.98;3.30;;;;;;;30.78;42.07;100651.97;10356001;28;20437;-92
2022/08/16 15:08:10;;;;;;;9.20;5.30;;;;;;;30.91;41.26;100667.31;10340876;28;20767;-91
2022/08/16 15:13:13;;;;;;;8.85;4.05;;;;;;;31.27;41.65;100671.09;10335926;28;20480;-91
2022/08/16 15:18:21;;;;;;;8.80;4.38;;;;;;;31.46;41.08;100674.19;10323576;28;20452;-91
2022/08/16 15:23:37;;;;;;;7.22;3.55;;;;;;;31.55;40.25;100672.69;10328184;28;20551;-91
2022/08/16 15:28:45;;;;;;;11.40;4.20;;;;;;;31.27;40.14;100671.09;10338760;28;20129;-89
2022/08/16 15:33:52;;;;;;;6.93;3.33;;;;;;;31.18;39.50;100680.72;10343226;28;20096;-91
2022/08/16 15:39:00;;;;;;;7.85;3.47;;;;;;;30.59;39.74;100689.34;10359676;28;20456;-91
2022/08/16 15:44:34;;;;;;;5.75;3.60;;;;;;;29.87;40.36;100686.91;10324491;28;20088;-89
2022/08/16 15:50:05;;;;;;;6.70;3.20;;;;;;;29.54;40.53;100685.41;10347012;28;20617;-93
2022/08/16 15:55:20;;;;;;;5.88;3.70;;;;;;;29.62;40.96;100683.09;10414032;23;20062;-94
2022/08/16 16:00:50;;;;;;;8.10;3.28;;;;;;;29.63;41.46;100682.13;10370805;28;20058;-91
2022/08/16 16:06:19;;;;;;;4.82;2.90;;;;;;;29.34;41.57;100679.47;10368326;28;20052;-89
2022/08/16 16:11:31;;;;;;;8.52;3.30;;;;;;;29.00;42.00;100686.94;10339032;28;20046;-91
2022/08/16 16:16:43;;;;;;;5.82;3.20;;;;;;;28.99;42.18;100697.81;10346902;28;20030;-80
2022/08/16 16:21:47;;;;;;;6.35;3.47;;;;;;;28.61;44.86;100696.50;10341540;28;20046;-89
2022/08/16 16:26:54;;;;;;;;;;;;;;;28.41;46.65;100697.66;10340141;28;20124;-90
2022/08/16 16:32:06;;;;;;;6.78;3.50;;;;;;;28.18;48.03;100691.81;10355902;28;20304;-90
2022/08/16 16:37:12;;;;;;;7.38;3.78;;;;;;;27.97;48.43;100688.53;10333120;28;20042;-92
2022/08/16 16:42:34;;;;;;;7.78;4.38;;;;;;;27.59;49.22;100696.91;10332258;28;20109;-92
2022/08/16 16:47:47;;;;;;;8.90;4.10;;;;;;;27.30;50.49;100691.28;10341109;28;20045;-91
2022/08/16 16:52:55;;;;;;;7.32;3.53;;;;;;;27.25;51.13;100693.38;10330243;28;20034;-91
2022/08/16 17:03:49;;;;;;;6.72;3.92;;;;;;;27.12;51.73;100708.41;10323147;28;20052;-92
2022/08/16 17:09:05;;;;;;;6.03;3.55;;;;;;;26.92;52.61;100715.72;10328770;28;20448;-92
2022/08/16 17:14:33;;;;;;;;;;;;;;;27.01;52.72;100710.78;10321263;28;20109;-90
2022/08/16 17:20:26;;;;;;;9.50;4.50;;;;;;;26.91;52.73;100708.59;10311182;28;20428;-92
2022/08/16 17:26:09;;;;;;;8.77;4.30;;;;;;;26.86;53.68;100717.84;10321392;28;20104;-92
2022/08/16 17:31:45;;;;;;;10.98;4.47;;;;;;;26.79;53.57;100728.91;10310879;28;20169;-92
2022/08/16 17:37:25;;;;;;;9.60;4.70;;;;;;;26.68;54.27;100730.41;10335074;28;20045;-90
2022/08/16 17:43:04;;;;;;;8.15;4.05;;;;;;;26.58;54.70;100743.41;10325339;28;20046;-89
2022/08/16 17:53:48;;;;;;;8.93;4.03;;;;;;;26.42;55.83;100759.41;10345347;28;20501;-90
2022/08/16 17:59:13;;;;;;;10.82;4.57;;;;;;;26.36;56.30;100762.41;10335256;28;20115;-89
2022/08/16 18:04:41;;;;;;;11.23;4.45;;;;;;;26.20;56.48;100764.97;10329994;28;20077;-90
2022/08/16 18:10:04;;;;;;;8.63;4.50;;;;;;;26.01;57.40;100770.34;10333277;28;20052;-90
2022/08/16 18:15:32;;;;;;;11.23;4.68;;;;;;;25.86;58.08;100786.19;10329867;28;20042;-91
2022/08/16 18:25:59;;;;;;;9.95;5.22;;;;;;;25.32;58.85;100796.69;10323113;28;20044;-86
2022/08/16 18:31:01;;;;;;;11.32;5.65;;;;;;;25.13;60.09;100796.63;10321879;28;20066;-87
2022/08/16 18:36:06;;;;;;;11.20;5.93;;;;;;;25.05;60.49;100801.41;10317711;28;20424;-87
2022/08/16 18:41:23;;;;;;;11.15;6.15;;;;;;;24.91;61.06;100806.50;10343715;28;20046;-88
2022/08/16 18:46:28;;;;;;;12.00;6.40;;;;;;;24.70;62.55;100804.66;10337103;28;20381;-87
2022/08/16 18:51:31;;;;;;;9.88;6.95;;;;;;;24.56;63.43;100816.81;10324515;28;20108;-86
2022/08/16 18:56:39;;;;;;;14.75;7.95;;;;;;;24.43;64.42;100830.72;10324709;28;20046;-87
2022/08/16 19:01:59;;;;;;;14.90;10.23;;;;;;;24.27;65.80;100824.22;10324685;28;20069;-88
2022/08/16 19:07:06;;;;;;;13.38;9.50;;;;;;;24.16;66.48;100830.00;10320875;28;20042;-87
2022/08/16 19:12:19;;;;;;;14.82;9.95;;;;;;;24.06;67.81;100833.97;10309024;28;20108;-88
2022/08/16 19:17:44;;;;;;;14.93;9.68;;;;;;;23.96;69.06;100841.44;10330454;28;20592;-90
2022/08/16 19:22:48;;;;;;;21.33;10.90;;;;;;;23.80;69.67;100854.50;10329807;28;20050;-89
2022/08/16 19:28:14;;;;;;;18.30;12.85;;;;;;;23.70;70.72;100861.97;10325894;28;20144;-88
2022/08/16 19:33:40;;;;;;;20.88;13.85;;;;;;;23.50;71.98;100856.50;10323090;28;20042;-89
2022/08/16 19:39:07;;;;;;;19.00;14.85;;;;;;;23.38;72.98;100858.66;10320282;28;20034;-89
2022/08/16 19:44:26;;;;;;;27.02;17.38;;;;;;;23.19;73.83;100866.44;10314670;28;20053;-89
2022/08/16 19:49:39;;;;;;;30.17;19.45;;;;;;;23.03;75.05;100866.06;10309906;28;20050;-89
2022/08/16 19:54:56;;;;;;;23.98;17.73;;;;;;;22.85;75.86;100880.91;10313488;28;20053;-90
2022/08/16 20:00:14;;;;;;;26.73;17.83;;;;;;;22.74;76.52;100889.25;10322885;28;20053;-90
2022/08/16 20:05:39;;;;;;;32.40;19.02;;;;;;;22.67;76.94;100890.38;10308233;28;20053;-90
2022/08/16 20:10:58;;;;;;;29.95;20.27;;;;;;;22.55;77.70;100890.78;10327490;28;20509;-90
2022/08/16 20:16:07;;;;;;;32.47;19.65;;;;;;;22.41;78.20;100892.06;10327808;28;20516;-89
2022/08/16 20:21:19;;;;;;;32.60;20.30;;;;;;;22.31;78.83;100898.59;10328409;28;20121;-90
2022/08/16 20:26:39;;;;;;;27.67;19.48;;;;;;;22.24;79.05;100903.19;10320073;28;20065;-89
2022/08/16 20:31:55;;;;;;;28.65;18.52;;;;;;;22.18;79.39;100907.84;10308562;28;20513;-90
2022/08/16 20:37:01;;;;;;;31.25;19.52;;;;;;;22.11;79.62;100912.47;10350576;28;20049;-90
2022/08/16 20:42:19;;;;;;;25.55;18.85;;;;;;;22.07;79.86;100918.81;10334260;28;20042;-90
2022/08/16 20:47:45;;;;;;;28.85;18.67;;;;;;;21.97;80.08;100915.53;10331982;28;20050;-90
2022/08/16 20:53:24;;;;;;;30.70;18.95;;;;;;;21.83;80.64;100918.59;10333031;28;20412;-88
2022/08/16 20:58:34;;;;;;;30.90;19.00;;;;;;;21.77;80.81;100926.75;10337593;28;20049;-90
2022/08/16 21:03:37;;;;;;;27.30;17.88;;;;;;;21.73;80.96;100921.56;10331638;28;20061;-90
2022/08/16 21:08:48;;;;;;;29.27;18.98;;;;;;;21.60;81.34;100935.19;10334768;28;20211;-89
2022/08/16 21:13:55;;;;;;;25.77;18.27;;;;;;;21.52;81.61;100943.38;10327313;28;20398;-88
2022/08/16 21:19:03;;;;;;;29.23;18.35;;;;;;;21.48;81.64;100940.81;10329308;28;20045;-89
2022/08/16 21:24:17;;;;;;;32.58;18.25;;;;;;;21.37;81.92;100941.09;10318638;28;20495;-90
2022/08/16 21:29:21;;;;;;;31.48;18.38;;;;;;;21.25;82.33;100944.94;10326015;28;20054;-89
2022/08/16 21:34:58;;;;;;;26.48;18.52;;;;;;;21.12;82.68;100943.47;10316362;28;20130;-89
2022/08/16 21:40:19;;;;;;;33.63;19.75;;;;;;;21.00;83.02;100947.31;10305484;28;20082;-89
2022/08/16 21:45:32;;;;;;;27.15;18.77;;;;;;;20.95;83.31;100942.09;10330478;28;20049;-89
2022/08/16 21:50:43;;;;;;;25.10;17.42;;;;;;;20.83;83.22;100947.72;10337803;28;20050;-89
2022/08/16 21:56:15;;;;;;;28.98;18.15;;;;;;;20.81;83.50;100949.53;10328848;28;20600;-90
2022/08/16 22:01:36;;;;;;;29.55;19.95;;;;;;;20.76;83.65;100959.41;10326325;28;20053;-88
2022/08/16 22:06:45;;;;;;;27.55;18.40;;;;;;;20.63;84.01;100961.44;10321365;28;20116;-90
2022/08/16 22:18:18;;;;;;;30.10;19.88;;;;;;;20.48;84.35;100967.97;10322824;28;20353;-90
2022/08/16 22:23:27;;;;;;;26.00;19.52;;;;;;;20.36;84.63;100963.78;10345956;28;20082;-89
2022/08/16 22:28:48;;;;;;;32.00;19.15;;;;;;;20.33;84.54;100971.81;10314553;28;20146;-90
2022/08/16 22:34:06;;;;;;;34.10;19.65;;;;;;;20.23;85.00;100975.56;10326894;28;20161;-90
2022/08/16 22:39:15;;;;;;;28.83;18.85;;;;;;;20.13;85.21;100983.72;10311593;28;20046;-88
2022/08/16 22:50:47;;;;;;;33.15;21.40;;;;;;;19.94;86.01;100983.19;10330378;28;20088;-90
2022/08/16 22:56:08;;;;;;;30.38;19.75;;;;;;;19.82;86.12;100978.09;10315091;28;20489;-89
2022/08/16 23:01:34;;;;;;;37.47;22.08;;;;;;;19.78;86.53;100982.59;10329157;28;20073;-90
2022/08/16 23:06:37;;;;;;;34.67;22.05;;;;;;;19.72;86.98;100992.41;10313593;28;20061;-89
2022/08/16 23:11:56;;;;;;;41.20;22.40;;;;;;;19.64;86.97;100989.03;10321715;28;20046;-90
2022/08/16 23:17:06;;;;;;;33.40;20.65;;;;;;;19.56;87.33;100981.19;10332509;28;20058;-89
2022/08/16 23:22:46;;;;;;;35.30;23.02;;;;;;;19.49;87.76;100980.41;10323450;28;20046;-89
2022/08/16 23:28:15;;;;;;;33.55;21.80;;;;;;;19.50;87.58;100976.88;10316509;28;20068;-88
2022/08/16 23:33:21;;;;;;;31.53;21.77;;;;;;;19.42;88.07;100969.00;10300538;28;20141;-88
2022/08/16 23:38:35;;;;;;;35.35;21.80;;;;;;;19.35;88.09;100967.38;10318002;28;20046;-89
2022/08/16 23:44:02;;;;;;;39.95;25.52;;;;;;;19.19;88.33;100961.44;10330609;28;20375;-90
2022/08/16 23:49:57;;;;;;;36.50;25.95;;;;;;;19.12;88.81;100954.47;10312795;28;20046;-89
2022/08/16 23:55:26;;;;;;;38.15;24.92;;;;;;;19.12;88.62;100948.28;10309984;28;20046;-90
